• Join FlightAware (Why Join?)
  • Login
  • US Flag 
04:51AM EDT


 

Airport Tracker/Info


-or-


 

Live Flight TrackerFlight Track Log ✈ EJA662 ✈ 01-Aug-2013 ✈ KOMA - KBFI

Flight Track Log - Related Links

Times and Time Zones

All times are in EDT time to prevent confusion due to time zone crossing. See the EJA662 flight status page for this flight to view local times or setup timezone preferences in your user account.

Time Position Orientation Groundspeed Altitude Reporting Facility
EDT Latitude Longitude Course Direction KTS MPH feet Rate Location/Type
03:28PM 41.2442 -95.9475 214° Southwest 247 284 5,100  Level Minneapolis Center
03:29PM 41.2794 -96.0158 305° West 253 291 7,500 2,280 Climbing Minneapolis Center
03:30PM 41.3153 -96.0992 300° West 255 293 9,900 2,280 Climbing Minneapolis Center
03:31PM 41.3500 -96.2181 291° West 274 315 12,300 2,100 Climbing Minneapolis Center
03:32PM 41.3797 -96.3161 292° West 283 326 14,300 1,920 Climbing Minneapolis Center
03:33PM 41.4086 -96.4164 291° West 287 330 16,300 1,860 Climbing Minneapolis Center
03:34PM 41.4431 -96.5169 295° West 295 339 18,200 1,860 Climbing Minneapolis Center
03:35PM 41.4767 -96.6181 294° West 299 344 20,200 1,920 Climbing Minneapolis Center
03:36PM 41.5211 -96.7133 302° West 300 345 22,200 1,260 Climbing Minneapolis Center
03:37PM 41.5597 -96.8172 296° West 326 375 22,900 1,200 Climbing Minneapolis Center
03:38PM 41.5825 -96.9561 282° West 321 369 24,700 1,560 Climbing Minneapolis Center
03:39PM 41.6031 -97.0683 284° West 314 361 26,200 1,320 Climbing Minneapolis Center
03:40PM 41.6228 -97.1806 283° West 311 358 27,500 1,020 Climbing Minneapolis Center
03:42PM 41.7108 -97.3058 313° West  Level FlightAware Approximate
03:42PM 41.6606 -97.4156 313° West 323 372 29,500  Level Minneapolis Center
03:43PM 41.6792 -97.5350 282° West 328 377 30,500 1,020 Climbing Minneapolis Center
03:44PM 41.7031 -97.6783 283° West 330 380 31,700 900 Climbing Minneapolis Center
03:45PM 41.7208 -97.7722 284° West 327 376 32,400 960 Climbing Minneapolis Center
03:46PM 41.7444 -97.9133 283° West 325 374 33,800 1,200 Climbing Minneapolis Center
03:47PM 41.7633 -98.0269 283° West 317 365 35,000 1,020 Climbing Minneapolis Center
03:48PM 41.7847 -98.1544 283° West 307 353 36,000 720 Climbing Minneapolis Center
03:49PM 41.8031 -98.2675 282° West 308 354 36,600 720 Climbing Minneapolis Center
03:50PM 41.8200 -98.3825 281° West 313 360 37,600 900 Climbing Minneapolis Center
03:52PM 41.8358 -98.4953 281° West 311 358 38,500 900 Climbing Minneapolis Center
03:53PM 41.8533 -98.6047 282° West 305 351 39,500 720 Climbing Minneapolis Center
03:54PM 41.8694 -98.7114 281° West 298 343 40,000 240 Climbing Minneapolis Center
03:55PM 41.8936 -98.8489 283° West 310 357 40,000  Level Minneapolis Center
03:56PM 41.9128 -98.9706 282° West 329 379 40,000  Level Minneapolis Center
03:57PM 41.9322 -99.0933 282° West 336 387 40,000  Level Minneapolis Center
03:57PM 41.9506 -99.1906 284° West 340 391 40,000  Level Denver Center
03:59PM 41.9767 -99.3081 287° West 334 384 40,000  Level Denver Center
04:00PM 42.0033 -99.4275 287° West 333 383 40,000  Level Denver Center
04:01PM 42.0297 -99.5458 287° West 333 383 40,000  Level Denver Center
04:02PM 42.0747 -99.6842 294° West 337 388 40,000  Level Denver Center
04:03PM 42.1281 -99.7939 303° West 337 388 40,000  Level Denver Center
04:04PM 42.1769 -99.8958 303° West 338 389 40,000  Level Denver Center
04:05PM 42.2344 -100.0150 303° West 340 391 40,000  Level Denver Center
04:06PM 42.2822 -100.1164 303° West 336 387 40,000  Level Denver Center
04:07PM 42.3492 -100.2594 302° West 338 389 40,000  Level Minneapolis Center
04:08PM 42.3875 -100.3372 304° West 338 389 40,000  Level Denver Center
04:09PM 42.4364 -100.4403 303° West 339 390 40,000  Level Denver Center
04:10PM 42.4936 -100.5611 303° West 340 391 40,000  Level Denver Center
04:11PM 42.5422 -100.6656 302° West 341 392 40,000  Level Denver Center
04:12PM 42.5992 -100.7869 303° West 341 392 40,000  Level Denver Center
04:13PM 42.6481 -100.8897 303° West 339 390 40,000  Level Denver Center
04:14PM 42.7047 -101.0136 302° West 345 397 40,000  Level Denver Center
04:15PM 42.7533 -101.1161 303° West 341 392 40,000  Level Denver Center
04:16PM 42.8042 -101.2267 302° West 339 390 40,000  Level Denver Center
04:17PM 42.8544 -101.3356 302° West 339 390 40,000  Level Denver Center
04:18PM 42.9111 -101.4628 301° West 336 387 40,000  Level Denver Center
04:19PM 42.9672 -101.5589 309° West 338 389 40,000  Level Denver Center
04:20PM 43.0392 -101.6664 312° West 344 396 40,000  Level Denver Center
04:21PM 43.0986 -101.7594 311° West 339 390 40,000  Level Denver Center
04:22PM 43.1633 -101.8525 314° West 340 391 40,000  Level Denver Center
04:23PM 43.2356 -101.9578 313° West 341 392 40,000  Level Denver Center
04:24PM 43.2994 -102.0464 315° West 342 394 40,000  Level Denver Center
04:25PM 43.3736 -102.1500 315° West 341 392 40,000  Level Denver Center
04:26PM 43.4369 -102.2381 315° West 339 390 40,000  Level Denver Center
04:27PM 43.5119 -102.3417 315° West 343 395 40,000  Level Denver Center
04:29PM 43.5722 -102.4331 312° West 339 390 40,000  Level Denver Center
04:30PM 43.6358 -102.5464 308° West 337 388 40,000  Level Denver Center
04:31PM 43.6906 -102.6408 309° West 330 380 40,000  Level Denver Center
04:32PM 43.7503 -102.7614 304° West 339 390 40,000  Level Denver Center
04:33PM 43.7931 -102.8697 299° West 338 389 40,000  Level Denver Center
04:34PM 43.8408 -102.9950 298° West 333 383 40,000  Level Denver Center
04:35PM 43.8825 -103.1014 299° West 332 382 40,000  Level Denver Center
04:36PM 43.9303 -103.2267 298° West 330 380 40,000  Level Denver Center
04:37PM 43.9719 -103.3347 298° West 331 381 40,000  Level Denver Center
04:38PM 44.0194 -103.4606 298° West 332 382 40,000  Level Denver Center
04:39PM 44.0600 -103.5681 298° West 330 380 40,000  Level Denver Center
04:40PM 44.1092 -103.6989 298° West 340 391 40,000  Level Denver Center
04:41PM 44.1511 -103.8094 298° West 339 390 40,000  Level Denver Center
04:42PM 44.1989 -103.9364 298° West 336 387 40,000  Level Denver Center
04:43PM 44.2397 -104.0456 298° West 334 384 40,000  Level Denver Center
04:44PM 44.2867 -104.1731 297° West 332 382 40,000  Level Denver Center
04:45PM 44.3278 -104.2817 298° West 331 381 40,000  Level Denver Center
04:46PM 44.3750 -104.4092 297° West 330 380 40,000  Level Denver Center
04:47PM 44.4147 -104.5194 297° West 331 381 40,000  Level Denver Center
04:48PM 44.4550 -104.6278 298° West 330 380 40,000  Level Denver Center
04:49PM 44.5011 -104.7547 297° West 329 379 40,000  Level Denver Center
04:50PM 44.5414 -104.8647 297° West 331 381 40,000  Level Denver Center
04:51PM 44.5878 -104.9936 297° West 332 382 40,000  Level Denver Center
04:52PM 44.6275 -105.1050 297° West 332 382 40,000  Level Denver Center
04:53PM 44.6742 -105.2347 297° West 334 384 40,000  Level Denver Center
04:54PM 44.7139 -105.3447 297° West 332 382 40,000  Level Denver Center
04:55PM 44.7556 -105.4653 296° West 334 384 40,000  Level Denver Center
04:56PM 44.7981 -105.5800 298° West 332 382 40,000  Level Denver Center
04:58PM 44.8458 -105.7206 296° West 333 383 40,000  Level Denver Center
04:58PM 44.8783 -105.7847 306° West 334 384 40,000  Level Salt Lake Center
04:59PM 44.9578 -105.9069 313° West 348 400 40,000  Level Salt Lake Center
05:00PM 45.0219 -106.0100 311° West 351 404 40,000  Level Salt Lake Center
05:01PM 45.0861 -106.1139 311° West 351 404 40,000  Level Salt Lake Center
05:02PM 45.1511 -106.2183 311° West 354 407 40,000  Level Salt Lake Center
05:03PM 45.2156 -106.3217 312° West 352 405 40,000  Level Salt Lake Center
05:04PM 45.2792 -106.4242 311° West 349 402 40,000  Level Salt Lake Center
05:05PM 45.3572 -106.5472 312° West 350 403 40,000  Level Salt Lake Center
05:07PM 45.4211 -106.6511 311° West 351 404 40,000  Level Salt Lake Center
05:08PM 45.4844 -106.7558 311° West 350 403 40,000 -60 Level Salt Lake Center
05:09PM 45.5247 -106.8711 297° West 333 383 39,900 -60 Descending Salt Lake Center
05:10PM 45.5619 -106.9908 294° West 327 376 39,900  Level Salt Lake Center
05:11PM 45.6100 -107.1369 295° West 334 384 39,900  Level Salt Lake Center
05:12PM 45.6569 -107.2564 299° West 339 390 39,900  Level Salt Lake Center
05:13PM 45.7014 -107.3744 298° West 340 391 40,000  Climbing Salt Lake Center
05:14PM 45.7464 -107.4922 299° West 339 390 40,000 -60 Level Salt Lake Center
05:15PM 45.7917 -107.6094 299° West 340 391 39,900 -60 Descending Salt Lake Center
05:16PM 45.8369 -107.7272 299° West 340 391 39,900  Level Salt Lake Center
05:17PM 45.8908 -107.8675 299° West 339 390 39,900  Level Salt Lake Center
05:18PM 45.9358 -107.9881 298° West 342 394 39,900  Level Salt Lake Center
05:19PM 45.9817 -108.1086 299° West 345 397 39,900  Level Salt Lake Center
05:20PM 46.0283 -108.2311 299° West 350 403 39,900  Level Salt Lake Center
05:21PM 46.0742 -108.3542 298° West 350 403 40,000  Climbing Salt Lake Center
05:22PM 46.1292 -108.5028 298° West 352 405 39,900 -60 Descending Salt Lake Center
05:23PM 46.1744 -108.6272 298° West 352 405 39,900  Level Salt Lake Center
05:24PM 46.2192 -108.7528 297° West 353 406 39,900  Level Salt Lake Center
05:25PM 46.2658 -108.8806 298° West 359 413 39,900  Level Salt Lake Center
05:26PM 46.3133 -109.0092 298° West 363 418 40,000  Climbing Salt Lake Center
05:27PM 46.3708 -109.1333 304° West 371 427 39,900 -60 Descending Salt Lake Center
05:28PM 46.4461 -109.2731 308° West 369 425 39,900  Level Salt Lake Center
05:29PM 46.5064 -109.3869 308° West 360 414 40,000  Climbing Salt Lake Center
05:30PM 46.5664 -109.5050 307° West 363 418 40,000 -60 Level Salt Lake Center
05:31PM 46.6278 -109.6219 307° West 364 419 39,900 -60 Descending Salt Lake Center
05:32PM 46.6903 -109.7381 308° West 365 420 39,900  Level Salt Lake Center
05:33PM 46.7539 -109.8544 309° West 365 420 39,900  Level Salt Lake Center
05:34PM 46.8144 -109.9733 307° West 365 420 39,900  Level Salt Lake Center
05:35PM 46.8811 -110.1219 303° West 365 420 39,900  Level Salt Lake Center
05:37PM 46.9331 -110.2478 301° West 362 417 39,900  Level Salt Lake Center
05:38PM 46.9858 -110.3744 301° West 364 419 39,900  Level Salt Lake Center
05:39PM 47.0325 -110.5058 298° West 363 418 39,900  Level Salt Lake Center
05:40PM 47.0731 -110.6406 294° West 361 415 39,900  Level Salt Lake Center
05:42PM 47.1650 -110.9353 295° West 361 415 39,900  Level Salt Lake Center
05:43PM 47.1975 -111.0719 289° West 356 410 39,900 240 Level Salt Lake Center
05:44PM 47.2300 -111.2067 290° West 351 404 40,400 480 Climbing Salt Lake Center
05:45PM 47.2444 -111.3433 279° West 338 389 41,000 240 Climbing Salt Lake Center
05:46PM 47.2536 -111.4875 275° West 348 400 41,000  Level Salt Lake Center
05:47PM 47.2633 -111.6331 276° West 354 407 41,000  Level Salt Lake Center
05:48PM 47.2728 -111.7769 276° West 354 407 41,000  Level Salt Lake Center
05:49PM 47.2839 -111.9525 275° West 356 410 41,000  Level Salt Lake Center
05:50PM 47.2931 -112.0989 275° West 359 413 41,000  Level Salt Lake Center
05:51PM 47.3014 -112.2478 275° West 362 417 41,000  Level Salt Lake Center
05:52PM 47.3117 -112.3944 276° West 362 417 41,000  Level Salt Lake Center
05:53PM 47.3194 -112.5381 275° West 355 409 41,000  Level Salt Lake Center
05:54PM 47.3278 -112.6842 275° West 357 411 41,000  Level Salt Lake Center
05:55PM 47.3375 -112.8583 275° West 355 409 41,000  Level Salt Lake Center
05:56PM 47.3447 -112.9828 275° West 359 413 41,000  Level Salt Lake Center
05:57PM 47.3536 -113.1642 274° West 362 417 41,000  Level Salt Lake Center
05:59PM 47.3631 -113.3520 274° West  Level FlightAware Approximate
05:59PM 47.3694 -113.4603 274° West 370 426 41,000  Level Salt Lake Center
06:00PM 47.3775 -113.6122 275° West 371 427 41,000  Level Salt Lake Center
06:01PM 47.3839 -113.7650 274° West 374 430 41,000  Level Salt Lake Center
06:02PM 47.3917 -113.9200 274° West 378 435 41,000  Level Salt Lake Center
06:03PM 47.3997 -114.1053 274° West 377 434 41,000  Level Salt Lake Center
06:04PM 47.4058 -114.2603 273° West 378 435 41,000  Level Salt Lake Center
06:05PM 47.4128 -114.4133 274° West 373 429 41,000  Level Salt Lake Center
06:07PM 47.4194 -114.6000 273° West 377 434 41,000  Level Seattle Center
06:08PM 47.4244 -114.7253 273° West 379 436 41,000  Level Salt Lake Center
06:09PM 47.4308 -114.8817 274° West 380 437 41,000  Level Salt Lake Center
06:10PM 47.4378 -115.0733 273° West 387 445 41,000  Level Seattle Center
06:11PM 47.4431 -115.2325 273° West 389 448 41,000  Level Seattle Center
06:12PM 47.4492 -115.3908 273° West 388 447 41,000  Level Seattle Center
06:13PM 47.4542 -115.5511 273° West 392 451 41,000  Level Seattle Center
06:14PM 47.4611 -115.7103 274° West 391 450 41,000  Level Seattle Center
06:15PM 47.4708 -115.8717 275° West 392 451 41,000  Level Seattle Center
06:16PM 47.4797 -116.0322 275° West 393 452 41,000  Level Seattle Center
06:17PM 47.4889 -116.1953 275° West 397 457 41,000  Level Seattle Center
06:18PM 47.4986 -116.3569 275° West 396 456 41,000  Level Seattle Center
06:19PM 47.5100 -116.5531 275° West 399 459 41,000  Level Seattle Center
06:20PM 47.5183 -116.7147 274° West 397 457 41,000  Level Seattle Center
06:21PM 47.5281 -116.8786 275° West 398 458 41,000  Level Seattle Center
06:22PM 47.5364 -117.0442 274° West 403 464 41,000  Level Seattle Center
06:23PM 47.5442 -117.2078 274° West 402 463 41,000  Level Seattle Center
06:24PM 47.5536 -117.3881 275° West 406 467 41,000  Level Seattle Center
06:25PM 47.5614 -117.5533 274° West 403 464 41,000  Level Seattle Center
06:26PM 47.5733 -117.7189 276° West 404 465 41,000  Level Seattle Center
06:27PM 47.5889 -117.8853 278° West 409 471 41,000  Level Seattle Center
06:28PM 47.6053 -118.0525 278° West 411 473 41,000  Level Seattle Center
06:29PM 47.6206 -118.2194 278° West 411 473 41,000  Level Seattle Center
06:30PM 47.6353 -118.3892 277° West 414 476 41,000  Level Seattle Center
06:31PM 47.6511 -118.5581 278° West 416 479 41,000  Level Seattle Center
06:32PM 47.6647 -118.7269 277° West 414 476 41,000  Level Seattle Center
06:33PM 47.6822 -118.9308 277° West 415 478 41,000  Level Seattle Center
06:34PM 47.6972 -119.1011 278° West 418 481 41,000  Level Seattle Center
06:35PM 47.7117 -119.2703 277° West 417 480 41,000  Level Seattle Center
06:36PM 47.7258 -119.4414 277° West 418 481 41,000 -420 Level Seattle Center
06:37PM 47.7392 -119.6106 277° West 415 478 40,200 -1,380 Descending Seattle Center
06:38PM 47.7517 -119.7817 276° West 418 481 38,200 -1,980 Descending Seattle Center
06:39PM 47.7650 -119.9506 277° West 415 478 36,200 -1,680 Descending Seattle Center
06:40PM 47.7775 -120.1139 277° West 404 465 34,900 -1,680 Descending Seattle Center
06:41PM 47.7889 -120.2686 276° West 381 438 32,900 -1,980 Descending Seattle Center
06:42PM 47.8003 -120.4264 276° West 384 442 30,900 -2,700 Descending Seattle Center
06:43PM 47.8133 -120.6092 276° West 367 422 27,400 -3,660 Descending Seattle Center
06:44PM 47.8236 -120.7536 276° West 353 406 23,500 -3,780 Descending Seattle Center
06:45PM 47.8361 -120.8939 278° West 361 415 19,800 -3,780 Descending Seattle Center
06:46PM 47.8436 -121.0375 275° West 347 399 15,900 -3,780 Descending Seattle Center
06:47PM 47.8528 -121.1683 276° West 322 371 12,100 -2,400 Descending Seattle Center
06:48PM 47.8611 -121.3142 275° West 305 351 11,000 -600 Descending Seattle Center
06:49PM 47.8706 -121.4389 276° West 350 403 11,000  Level Seattle Center
06:50PM 47.8789 -121.5908 275° West 336 387 11,000 -120 Level Seattle Center
06:51PM 47.8697 -121.7111 264° West 315 362 10,800 -840 Descending Seattle Center
06:53PM 47.8147 -121.7994 227° Southwest 251 289 9,400 -1,500 Descending Seattle Center
06:53PM 47.7683 -121.8714 226° Southwest 233 268 7,700 -1,920 Descending Seattle Center
06:54PM 47.7619 -121.9508 263° West 233 268 5,900 -1,980 Descending Seattle Center
06:55PM 47.7583 -122.0586 267° West 223 257 3,800 -1,320 Descending Seattle Center
06:57PM 47.7586 -122.1478 270° West 207 238 3,000 -420 Descending Seattle Center
06:58PM 47.7594 -122.2361 271° West 201 231 3,000  Level Seattle Center
06:59PM 47.7589 -122.3156 269° West 207 238 3,000 -180 Level Seattle Center
07:00PM 47.7383 -122.3928 248° West 198 228 2,700 -540 Descending Seattle Center
07:00PM 47.7017 -122.4064 194° South 180 207 2,100 -300 Descending Seattle Center
07:01PM 47.6556 -122.3992 174° South 148 170 2,200 -60 Climbing Seattle Center
07:02PM 47.6194 -122.3794 160° South 133 153 2,000 -480 Descending Seattle Center
07:03PM 47.5911 -122.3556 150° Southeast 120 138 1,300 -720 Descending Seattle Center
07:05PM 47.5594 -122.3272 149° Southeast 120 138 500 4,080 Descending Seattle Center
07:06PM 47.5236 -122.2983 151° Southeast 120 138 11,000 8,400 Climbing Seattle Center